sensor_id;sensor_type;location;lat;lon;timestamp;pressure;altitude;pressure_sealevel;temperature;humidity
35202;BME280;20553;47.544;7.586;2022-07-23T00:07:03;98241.31;;;20.38;100.00
35202;BME280;20553;47.544;7.586;2022-07-23T00:12:24;98240.16;;;20.05;100.00
35202;BME280;20553;47.544;7.586;2022-07-23T00:18:02;98248.78;;;20.00;100.00
35202;BME280;20553;47.544;7.586;2022-07-23T00:23:26;98262.97;;;20.12;100.00
35202;BME280;20553;47.544;7.586;2022-07-23T00:28:38;98269.59;;;20.27;100.00
35202;BME280;20553;47.544;7.586;2022-07-23T00:33:43;98253.66;;;20.33;100.00
35202;BME280;20553;47.544;7.586;2022-07-23T00:38:49;98240.44;;;20.38;100.00
35202;BME280;20553;47.544;7.586;2022-07-23T00:43:54;98223.34;;;20.45;100.00
35202;BME280;20553;47.544;7.586;2022-07-23T00:49:02;98231.81;;;20.60;100.00
35202;BME280;20553;47.544;7.586;2022-07-23T00:54:13;98229.88;;;20.71;100.00
35202;BME280;20553;47.544;7.586;2022-07-23T00:59:18;98240.13;;;20.77;100.00
35202;BME280;20553;47.544;7.586;2022-07-23T01:04:22;98248.09;;;20.96;100.00
35202;BME280;20553;47.544;7.586;2022-07-23T01:09:28;98216.44;;;20.69;100.00
35202;BME280;20553;47.544;7.586;2022-07-23T01:14:33;98200.13;;;20.15;100.00
35202;BME280;20553;47.544;7.586;2022-07-23T01:19:37;98194.63;;;20.07;100.00
35202;BME280;20553;47.544;7.586;2022-07-23T01:24:42;98195.69;;;19.78;100.00
35202;BME280;20553;47.544;7.586;2022-07-23T01:29:47;98162.56;;;19.65;100.00
35202;BME280;20553;47.544;7.586;2022-07-23T01:34:55;98199.00;;;19.44;100.00
35202;BME280;20553;47.544;7.586;2022-07-23T01:40:00;98197.84;;;19.47;100.00
35202;BME280;20553;47.544;7.586;2022-07-23T01:45:06;98183.53;;;19.54;100.00
35202;BME280;20553;47.544;7.586;2022-07-23T01:50:13;98206.84;;;19.75;100.00
35202;BME280;20553;47.544;7.586;2022-07-23T01:55:38;98190.69;;;19.55;100.00
35202;BME280;20553;47.544;7.586;2022-07-23T02:00:43;98190.31;;;19.41;100.00
35202;BME280;20553;47.544;7.586;2022-07-23T02:05:47;98176.88;;;19.39;100.00
35202;BME280;20553;47.544;7.586;2022-07-23T02:10:53;98188.50;;;19.31;100.00
35202;BME280;20553;47.544;7.586;2022-07-23T02:15:58;98197.09;;;19.27;100.00
35202;BME280;20553;47.544;7.586;2022-07-23T02:21:02;98212.47;;;19.36;100.00
35202;BME280;20553;47.544;7.586;2022-07-23T02:26:11;98213.66;;;19.33;100.00
35202;BME280;20553;47.544;7.586;2022-07-23T02:31:23;98187.34;;;19.34;100.00
35202;BME280;20553;47.544;7.586;2022-07-23T02:36:27;98194.16;;;19.38;100.00
35202;BME280;20553;47.544;7.586;2022-07-23T02:41:33;98195.03;;;19.39;100.00
35202;BME280;20553;47.544;7.586;2022-07-23T02:46:37;98219.03;;;19.43;100.00
35202;BME280;20553;47.544;7.586;2022-07-23T02:51:42;98292.19;;;19.54;100.00
35202;BME280;20553;47.544;7.586;2022-07-23T02:56:48;98287.34;;;19.48;100.00
35202;BME280;20553;47.544;7.586;2022-07-23T03:01:54;98286.84;;;19.35;100.00
35202;BME280;20553;47.544;7.586;2022-07-23T03:06:58;98271.72;;;19.23;100.00
35202;BME280;20553;47.544;7.586;2022-07-23T03:12:04;98285.44;;;19.21;100.00
35202;BME280;20553;47.544;7.586;2022-07-23T03:17:15;98255.19;;;19.06;100.00
35202;BME280;20553;47.544;7.586;2022-07-23T03:22:20;98335.22;;;19.02;100.00
35202;BME280;20553;47.544;7.586;2022-07-23T03:27:28;98406.34;;;19.15;100.00
35202;BME280;20553;47.544;7.586;2022-07-23T03:32:33;98351.34;;;19.13;100.00
35202;BME280;20553;47.544;7.586;2022-07-23T03:37:38;98287.47;;;19.09;100.00
35202;BME280;20553;47.544;7.586;2022-07-23T03:42:45;98268.59;;;19.17;100.00
35202;BME280;20553;47.544;7.586;2022-07-23T03:47:49;98220.47;;;19.00;100.00
35202;BME280;20553;47.544;7.586;2022-07-23T03:52:53;98242.25;;;18.71;100.00
35202;BME280;20553;47.544;7.586;2022-07-23T03:57:59;98251.97;;;18.54;100.00
35202;BME280;20553;47.544;7.586;2022-07-23T04:03:03;98268.66;;;18.39;100.00
35202;BME280;20553;47.544;7.586;2022-07-23T04:08:09;98298.63;;;18.47;100.00
35202;BME280;20553;47.544;7.586;2022-07-23T04:13:19;98302.78;;;18.42;100.00
35202;BME280;20553;47.544;7.586;2022-07-23T04:18:24;98294.78;;;18.40;100.00
35202;BME280;20553;47.544;7.586;2022-07-23T04:23:35;98292.50;;;18.45;100.00
35202;BME280;20553;47.544;7.586;2022-07-23T04:28:42;98292.94;;;18.51;100.00
35202;BME280;20553;47.544;7.586;2022-07-23T04:33:47;98330.47;;;18.55;100.00
35202;BME280;20553;47.544;7.586;2022-07-23T04:38:51;98302.78;;;18.52;100.00
35202;BME280;20553;47.544;7.586;2022-07-23T04:43:57;98325.19;;;18.54;100.00
35202;BME280;20553;47.544;7.586;2022-07-23T04:49:02;98350.91;;;18.69;100.00
35202;BME280;20553;47.544;7.586;2022-07-23T04:54:09;98349.78;;;18.72;100.00
35202;BME280;20553;47.544;7.586;2022-07-23T04:59:16;98334.06;;;18.85;100.00
35202;BME280;20553;47.544;7.586;2022-07-23T05:04:24;98339.91;;;18.90;100.00
35202;BME280;20553;47.544;7.586;2022-07-23T05:09:29;98328.63;;;19.05;100.00
35202;BME280;20553;47.544;7.586;2022-07-23T05:14:35;98348.41;;;19.34;100.00
35202;BME280;20553;47.544;7.586;2022-07-23T05:19:40;98343.63;;;19.94;100.00
35202;BME280;20553;47.544;7.586;2022-07-23T05:24:45;98361.47;;;20.06;100.00
35202;BME280;20553;47.544;7.586;2022-07-23T05:29:51;98364.38;;;19.95;100.00
35202;BME280;20553;47.544;7.586;2022-07-23T05:34:56;98375.25;;;19.95;100.00
35202;BME280;20553;47.544;7.586;2022-07-23T05:40:01;98371.66;;;20.04;100.00
35202;BME280;20553;47.544;7.586;2022-07-23T05:45:08;98364.34;;;20.04;100.00
35202;BME280;20553;47.544;7.586;2022-07-23T05:50:17;98372.44;;;20.14;100.00
35202;BME280;20553;47.544;7.586;2022-07-23T05:55:27;98374.75;;;20.37;100.00
35202;BME280;20553;47.544;7.586;2022-07-23T06:00:35;98371.25;;;20.72;100.00
35202;BME280;20553;47.544;7.586;2022-07-23T06:05:40;98371.69;;;21.04;100.00
35202;BME280;20553;47.544;7.586;2022-07-23T06:10:44;98368.91;;;21.40;100.00
35202;BME280;20553;47.544;7.586;2022-07-23T06:15:50;98385.22;;;21.84;100.00
35202;BME280;20553;47.544;7.586;2022-07-23T06:20:55;98394.03;;;22.12;100.00
35202;BME280;20553;47.544;7.586;2022-07-23T06:26:02;98401.09;;;22.23;100.00
35202;BME280;20553;47.544;7.586;2022-07-23T06:31:09;98405.59;;;22.32;100.00
35202;BME280;20553;47.544;7.586;2022-07-23T06:36:13;98410.72;;;22.09;100.00
35202;BME280;20553;47.544;7.586;2022-07-23T06:41:17;98424.06;;;21.78;100.00
35202;BME280;20553;47.544;7.586;2022-07-23T06:46:23;98445.31;;;21.74;100.00
35202;BME280;20553;47.544;7.586;2022-07-23T06:51:28;98428.75;;;21.67;100.00
35202;BME280;20553;47.544;7.586;2022-07-23T06:56:32;98436.09;;;21.49;100.00
35202;BME280;20553;47.544;7.586;2022-07-23T07:01:38;98450.41;;;21.33;100.00
35202;BME280;20553;47.544;7.586;2022-07-23T07:06:43;98420.72;;;21.92;100.00
35202;BME280;20553;47.544;7.586;2022-07-23T07:11:47;98420.09;;;23.66;100.00
35202;BME280;20553;47.544;7.586;2022-07-23T07:16:52;98426.44;;;24.39;100.00
35202;BME280;20553;47.544;7.586;2022-07-23T07:21:57;98434.47;;;23.84;100.00
35202;BME280;20553;47.544;7.586;2022-07-23T07:27:02;98441.28;;;23.72;100.00
35202;BME280;20553;47.544;7.586;2022-07-23T07:32:07;98448.44;;;24.14;100.00
35202;BME280;20553;47.544;7.586;2022-07-23T07:37:13;98453.91;;;24.93;100.00
35202;BME280;20553;47.544;7.586;2022-07-23T07:42:17;98447.31;;;24.80;97.82
35202;BME280;20553;47.544;7.586;2022-07-23T07:47:23;98461.59;;;24.67;97.58
35202;BME280;20553;47.544;7.586;2022-07-23T07:52:28;98447.53;;;25.01;90.88
35202;BME280;20553;47.544;7.586;2022-07-23T07:57:32;98444.09;;;24.99;89.54
35202;BME280;20553;47.544;7.586;2022-07-23T08:02:46;98454.41;;;25.28;87.06
35202;BME280;20553;47.544;7.586;2022-07-23T08:07:53;98453.88;;;25.71;77.51
35202;BME280;20553;47.544;7.586;2022-07-23T08:12:58;98457.34;;;26.48;75.83
35202;BME280;20553;47.544;7.586;2022-07-23T08:18:05;98443.03;;;28.53;65.30
35202;BME280;20553;47.544;7.586;2022-07-23T08:23:10;98435.72;;;29.89;62.11
35202;BME280;20553;47.544;7.586;2022-07-23T08:28:15;98435.31;;;30.78;56.83
35202;BME280;20553;47.544;7.586;2022-07-23T08:33:23;98454.09;;;30.56;55.52
35202;BME280;20553;47.544;7.586;2022-07-23T08:38:35;98451.63;;;29.47;55.15
35202;BME280;20553;47.544;7.586;2022-07-23T08:43:40;98455.38;;;28.64;56.07
35202;BME280;20553;47.544;7.586;2022-07-23T08:48:49;98464.50;;;28.30;57.72
35202;BME280;20553;47.544;7.586;2022-07-23T08:53:56;98459.63;;;28.32;58.05
35202;BME280;20553;47.544;7.586;2022-07-23T08:59:01;98471.28;;;28.62;56.34
35202;BME280;20553;47.544;7.586;2022-07-23T09:04:08;98467.94;;;28.38;57.17
35202;BME280;20553;47.544;7.586;2022-07-23T09:09:19;98458.81;;;28.73;54.67
35202;BME280;20553;47.544;7.586;2022-07-23T09:14:39;98435.72;;;29.76;52.25
35202;BME280;20553;47.544;7.586;2022-07-23T09:19:45;98438.59;;;31.70;45.57
35202;BME280;20553;47.544;7.586;2022-07-23T09:25:06;98430.69;;;34.06;39.40
35202;BME280;20553;47.544;7.586;2022-07-23T09:30:11;98447.03;;;34.26;38.76
35202;BME280;20553;47.544;7.586;2022-07-23T09:35:17;98437.94;;;34.19;38.08
35202;BME280;20553;47.544;7.586;2022-07-23T09:40:22;98441.44;;;34.38;37.59
35202;BME280;20553;47.544;7.586;2022-07-23T09:45:27;98440.06;;;33.70;38.92
35202;BME280;20553;47.544;7.586;2022-07-23T09:50:33;98444.41;;;33.05;39.99
35202;BME280;20553;47.544;7.586;2022-07-23T09:55:38;98446.00;;;32.82;39.68
35202;BME280;20553;47.544;7.586;2022-07-23T10:00:42;98442.25;;;33.80;38.17
35202;BME280;20553;47.544;7.586;2022-07-23T10:05:51;98452.50;;;35.26;36.47
35202;BME280;20553;47.544;7.586;2022-07-23T10:11:06;98457.25;;;35.88;34.51
35202;BME280;20553;47.544;7.586;2022-07-23T10:16:28;98463.66;;;36.23;34.36
35202;BME280;20553;47.544;7.586;2022-07-23T10:21:39;98464.00;;;36.09;34.40
35202;BME280;20553;47.544;7.586;2022-07-23T10:27:02;98463.34;;;34.99;35.87
35202;BME280;20553;47.544;7.586;2022-07-23T10:32:19;98455.94;;;35.62;34.90
35202;BME280;20553;47.544;7.586;2022-07-23T10:37:30;98454.88;;;35.34;35.57
35202;BME280;20553;47.544;7.586;2022-07-23T10:42:42;98464.75;;;36.05;34.08
35202;BME280;20553;47.544;7.586;2022-07-23T10:47:46;98457.53;;;39.14;30.04
35202;BME280;20553;47.544;7.586;2022-07-23T10:53:13;98454.81;;;39.45;28.42
35202;BME280;20553;47.544;7.586;2022-07-23T10:58:45;98461.03;;;40.14;28.29
35202;BME280;20553;47.544;7.586;2022-07-23T11:03:56;98451.19;;;39.65;28.63
35202;BME280;20553;47.544;7.586;2022-07-23T11:09:24;98443.88;;;38.65;29.96
35202;BME280;20553;47.544;7.586;2022-07-23T11:14:57;98448.34;;;38.18;31.17
35202;BME280;20553;47.544;7.586;2022-07-23T11:20:20;98448.91;;;37.60;31.42
35202;BME280;20553;47.544;7.586;2022-07-23T11:25:38;98443.00;;;39.38;29.48
35202;BME280;20553;47.544;7.586;2022-07-23T11:30:43;98445.84;;;42.00;26.29
35202;BME280;20553;47.544;7.586;2022-07-23T11:36:00;98431.44;;;44.18;22.59
35202;BME280;20553;47.544;7.586;2022-07-23T11:41:08;98434.19;;;43.14;23.41
35202;BME280;20553;47.544;7.586;2022-07-23T11:46:13;98428.25;;;42.72;22.99
35202;BME280;20553;47.544;7.586;2022-07-23T11:51:24;98419.88;;;44.47;21.67
35202;BME280;20553;47.544;7.586;2022-07-23T11:56:30;98423.13;;;44.96;20.86
35202;BME280;20553;47.544;7.586;2022-07-23T12:01:35;98422.09;;;42.41;24.00
35202;BME280;20553;47.544;7.586;2022-07-23T12:06:39;98416.53;;;40.78;26.03
35202;BME280;20553;47.544;7.586;2022-07-23T12:11:57;98400.78;;;42.83;24.28
35202;BME280;20553;47.544;7.586;2022-07-23T12:17:09;98405.34;;;45.10;20.88
35202;BME280;20553;47.544;7.586;2022-07-23T12:22:14;98406.41;;;46.27;19.87
35202;BME280;20553;47.544;7.586;2022-07-23T12:27:22;98413.44;;;44.75;19.79
35202;BME280;20553;47.544;7.586;2022-07-23T12:32:28;98404.91;;;41.84;22.40
35202;BME280;20553;47.544;7.586;2022-07-23T12:37:34;98394.38;;;41.71;21.30
35202;BME280;20553;47.544;7.586;2022-07-23T12:42:42;98402.69;;;41.86;22.50
35202;BME280;20553;47.544;7.586;2022-07-23T12:48:01;98390.00;;;43.29;20.27
35202;BME280;20553;47.544;7.586;2022-07-23T12:53:09;98390.66;;;42.05;22.05
35202;BME280;20553;47.544;7.586;2022-07-23T12:58:20;98386.69;;;39.29;25.61
35202;BME280;20553;47.544;7.586;2022-07-23T13:03:36;98389.34;;;41.23;23.49
35202;BME280;20553;47.544;7.586;2022-07-23T13:08:41;98381.25;;;41.56;23.19
35202;BME280;20553;47.544;7.586;2022-07-23T13:13:47;98380.13;;;41.91;23.01
35202;BME280;20553;47.544;7.586;2022-07-23T13:18:51;98392.47;;;44.76;20.18
35202;BME280;20553;47.544;7.586;2022-07-23T13:24:38;98386.09;;;46.02;18.80
35202;BME280;20553;47.544;7.586;2022-07-23T13:29:44;98378.75;;;46.24;16.71
35202;BME280;20553;47.544;7.586;2022-07-23T13:34:48;98389.34;;;47.07;15.91
35202;BME280;20553;47.544;7.586;2022-07-23T13:39:53;98384.53;;;47.16;14.98
35202;BME280;20553;47.544;7.586;2022-07-23T13:44:59;98369.88;;;46.57;15.70
35202;BME280;20553;47.544;7.586;2022-07-23T13:50:04;98376.34;;;47.24;14.43
35202;BME280;20553;47.544;7.586;2022-07-23T13:55:09;98374.03;;;47.08;14.94
35202;BME280;20553;47.544;7.586;2022-07-23T14:00:15;98365.03;;;47.41;14.75
35202;BME280;20553;47.544;7.586;2022-07-23T14:05:40;98370.88;;;45.44;16.46
35202;BME280;20553;47.544;7.586;2022-07-23T14:10:46;98362.22;;;45.41;16.79
35202;BME280;20553;47.544;7.586;2022-07-23T14:15:52;98363.91;;;46.27;15.46
35202;BME280;20553;47.544;7.586;2022-07-23T14:20:57;98372.09;;;46.77;14.06
35202;BME280;20553;47.544;7.586;2022-07-23T14:26:01;98365.56;;;46.68;14.89
35202;BME280;20553;47.544;7.586;2022-07-23T14:31:07;98358.50;;;47.76;14.02
35202;BME280;20553;47.544;7.586;2022-07-23T14:36:35;98362.84;;;46.94;14.42
35202;BME280;20553;47.544;7.586;2022-07-23T14:41:41;98365.41;;;45.70;15.64
35202;BME280;20553;47.544;7.586;2022-07-23T14:46:47;98354.78;;;44.94;16.51
35202;BME280;20553;47.544;7.586;2022-07-23T14:51:51;98368.22;;;45.25;16.34
35202;BME280;20553;47.544;7.586;2022-07-23T14:56:56;98363.25;;;43.97;17.20
35202;BME280;20553;47.544;7.586;2022-07-23T15:02:02;98344.25;;;42.31;19.04
35202;BME280;20553;47.544;7.586;2022-07-23T15:07:07;98352.38;;;42.81;18.36
35202;BME280;20553;47.544;7.586;2022-07-23T15:12:11;98361.66;;;42.33;18.88
35202;BME280;20553;47.544;7.586;2022-07-23T15:17:17;98350.38;;;42.63;18.58
35202;BME280;20553;47.544;7.586;2022-07-23T15:22:23;98356.06;;;43.39;17.94
35202;BME280;20553;47.544;7.586;2022-07-23T15:27:30;98353.56;;;44.59;17.42
35202;BME280;20553;47.544;7.586;2022-07-23T15:32:37;98350.84;;;44.81;17.13
35202;BME280;20553;47.544;7.586;2022-07-23T15:37:41;98351.00;;;43.88;17.98
35202;BME280;20553;47.544;7.586;2022-07-23T15:42:47;98362.78;;;44.37;17.69
35202;BME280;20553;47.544;7.586;2022-07-23T15:47:54;98348.97;;;43.22;18.17
35202;BME280;20553;47.544;7.586;2022-07-23T15:52:59;98359.63;;;40.56;21.04
35202;BME280;20553;47.544;7.586;2022-07-23T15:58:04;98348.91;;;42.41;19.49
35202;BME280;20553;47.544;7.586;2022-07-23T16:03:09;98343.00;;;43.76;18.04
35202;BME280;20553;47.544;7.586;2022-07-23T16:08:13;98346.00;;;44.12;17.01
35202;BME280;20553;47.544;7.586;2022-07-23T16:13:17;98340.50;;;44.21;16.70
35202;BME280;20553;47.544;7.586;2022-07-23T16:18:23;98345.06;;;44.17;16.83
35202;BME280;20553;47.544;7.586;2022-07-23T16:23:28;98340.25;;;43.19;18.05
35202;BME280;20553;47.544;7.586;2022-07-23T16:28:32;98330.66;;;42.63;17.93
35202;BME280;20553;47.544;7.586;2022-07-23T16:40:40;98342.56;;;41.03;19.49
35202;BME280;20553;47.544;7.586;2022-07-23T16:45:58;98340.03;;;40.51;20.73
35202;BME280;20553;47.544;7.586;2022-07-23T16:51:03;98342.50;;;41.13;19.68
35202;BME280;20553;47.544;7.586;2022-07-23T16:56:12;98338.56;;;41.83;19.47
35202;BME280;20553;47.544;7.586;2022-07-23T17:01:36;98345.38;;;40.43;20.44
35202;BME280;20553;47.544;7.586;2022-07-23T17:06:52;98349.06;;;36.91;24.18
35202;BME280;20553;47.544;7.586;2022-07-23T17:11:58;98354.28;;;37.09;24.06
35202;BME280;20553;47.544;7.586;2022-07-23T17:17:02;98341.78;;;37.77;23.19
35202;BME280;20553;47.544;7.586;2022-07-23T17:22:09;98341.59;;;37.56;23.26
35202;BME280;20553;47.544;7.586;2022-07-23T17:27:14;98355.34;;;35.13;27.11
35202;BME280;20553;47.544;7.586;2022-07-23T17:32:20;98356.53;;;33.17;30.20
35202;BME280;20553;47.544;7.586;2022-07-23T17:37:24;98321.28;;;32.08;31.82
35202;BME280;20553;47.544;7.586;2022-07-23T17:42:31;98330.25;;;31.10;33.46
35202;BME280;20553;47.544;7.586;2022-07-23T17:47:35;98333.53;;;30.61;34.42
35202;BME280;20553;47.544;7.586;2022-07-23T17:52:49;98340.63;;;30.37;35.30
35202;BME280;20553;47.544;7.586;2022-07-23T17:57:55;98339.63;;;30.25;35.51
35202;BME280;20553;47.544;7.586;2022-07-23T18:03:00;98342.03;;;30.01;36.20
35202;BME280;20553;47.544;7.586;2022-07-23T18:08:09;98349.94;;;29.84;36.80
35202;BME280;20553;47.544;7.586;2022-07-23T18:13:14;98352.50;;;29.52;37.32
35202;BME280;20553;47.544;7.586;2022-07-23T18:18:18;98360.97;;;29.37;38.45
35202;BME280;20553;47.544;7.586;2022-07-23T18:23:23;98358.41;;;29.09;38.99
35202;BME280;20553;47.544;7.586;2022-07-23T18:28:29;98373.56;;;28.65;40.34
35202;BME280;20553;47.544;7.586;2022-07-23T18:33:33;98388.22;;;28.30;41.53
35202;BME280;20553;47.544;7.586;2022-07-23T18:38:41;98389.44;;;28.21;41.39
35202;BME280;20553;47.544;7.586;2022-07-23T18:43:49;98388.81;;;28.19;41.00
35202;BME280;20553;47.544;7.586;2022-07-23T18:48:53;98391.00;;;27.95;41.44
35202;BME280;20553;47.544;7.586;2022-07-23T18:53:58;98390.66;;;27.83;42.42
35202;BME280;20553;47.544;7.586;2022-07-23T18:59:03;98393.28;;;27.63;42.47
35202;BME280;20553;47.544;7.586;2022-07-23T19:04:08;98405.97;;;27.36;43.78
35202;BME280;20553;47.544;7.586;2022-07-23T19:09:12;98406.06;;;27.06;45.03
35202;BME280;20553;47.544;7.586;2022-07-23T19:14:19;98415.34;;;26.84;46.08
35202;BME280;20553;47.544;7.586;2022-07-23T19:19:23;98419.56;;;26.65;47.91
35202;BME280;20553;47.544;7.586;2022-07-23T19:24:27;98422.22;;;26.73;49.04
35202;BME280;20553;47.544;7.586;2022-07-23T19:29:33;98432.44;;;26.79;48.69
35202;BME280;20553;47.544;7.586;2022-07-23T19:34:38;98442.31;;;26.29;51.06
35202;BME280;20553;47.544;7.586;2022-07-23T19:39:43;98447.97;;;25.97;53.14
35202;BME280;20553;47.544;7.586;2022-07-23T19:44:49;98455.00;;;25.77;54.50
35202;BME280;20553;47.544;7.586;2022-07-23T19:49:55;98464.78;;;25.56;55.04
35202;BME280;20553;47.544;7.586;2022-07-23T19:55:01;98477.31;;;25.27;57.74
35202;BME280;20553;47.544;7.586;2022-07-23T20:00:10;98485.31;;;25.14;59.53
35202;BME280;20553;47.544;7.586;2022-07-23T20:05:15;98494.31;;;25.00;60.73
35202;BME280;20553;47.544;7.586;2022-07-23T20:10:20;98488.66;;;24.93;61.35
35202;BME280;20553;47.544;7.586;2022-07-23T20:15:25;98495.56;;;24.89;61.62
35202;BME280;20553;47.544;7.586;2022-07-23T20:20:30;98498.13;;;24.90;60.56
35202;BME280;20553;47.544;7.586;2022-07-23T20:25:34;98503.66;;;24.82;61.32
35202;BME280;20553;47.544;7.586;2022-07-23T20:30:42;98508.81;;;24.69;62.19
35202;BME280;20553;47.544;7.586;2022-07-23T20:35:51;98517.97;;;24.45;63.96
35202;BME280;20553;47.544;7.586;2022-07-23T20:40:55;98522.81;;;24.18;66.70
35202;BME280;20553;47.544;7.586;2022-07-23T20:46:00;98527.44;;;24.01;68.65
35202;BME280;20553;47.544;7.586;2022-07-23T20:51:05;98529.69;;;23.89;68.91
35202;BME280;20553;47.544;7.586;2022-07-23T20:56:09;98529.31;;;23.76;69.63
35202;BME280;20553;47.544;7.586;2022-07-23T21:01:14;98530.69;;;23.63;70.90
35202;BME280;20553;47.544;7.586;2022-07-23T21:06:18;98527.41;;;23.43;71.57
35202;BME280;20553;47.544;7.586;2022-07-23T21:11:23;98516.47;;;23.35;72.35
35202;BME280;20553;47.544;7.586;2022-07-23T21:16:28;98519.88;;;23.21;73.37
35202;BME280;20553;47.544;7.586;2022-07-23T21:21:33;98518.09;;;23.03;74.42
35202;BME280;20553;47.544;7.586;2022-07-23T21:26:37;98527.03;;;22.79;75.76
35202;BME280;20553;47.544;7.586;2022-07-23T21:31:42;98530.06;;;22.68;76.57
35202;BME280;20553;47.544;7.586;2022-07-23T21:36:48;98539.75;;;22.54;77.17
35202;BME280;20553;47.544;7.586;2022-07-23T21:41:52;98549.25;;;22.41;78.39
35202;BME280;20553;47.544;7.586;2022-07-23T21:46:57;98546.63;;;22.32;79.14
35202;BME280;20553;47.544;7.586;2022-07-23T21:52:03;98541.22;;;22.22;80.19
35202;BME280;20553;47.544;7.586;2022-07-23T21:57:07;98551.41;;;22.12;81.58
35202;BME280;20553;47.544;7.586;2022-07-23T22:02:12;98549.63;;;22.02;82.26
35202;BME280;20553;47.544;7.586;2022-07-23T22:07:17;98549.19;;;21.89;83.29
35202;BME280;20553;47.544;7.586;2022-07-23T22:12:21;98554.66;;;21.71;83.96
35202;BME280;20553;47.544;7.586;2022-07-23T22:17:26;98554.13;;;21.67;84.42
35202;BME280;20553;47.544;7.586;2022-07-23T22:22:31;98551.47;;;21.76;82.72
35202;BME280;20553;47.544;7.586;2022-07-23T22:27:35;98548.38;;;21.70;84.18
35202;BME280;20553;47.544;7.586;2022-07-23T22:32:43;98555.38;;;21.55;84.96
35202;BME280;20553;47.544;7.586;2022-07-23T22:37:47;98552.16;;;21.42;85.83
35202;BME280;20553;47.544;7.586;2022-07-23T22:42:51;98559.84;;;21.28;87.10
35202;BME280;20553;47.544;7.586;2022-07-23T22:47:57;98552.16;;;21.24;87.97
35202;BME280;20553;47.544;7.586;2022-07-23T22:53:02;98555.00;;;21.04;90.03
35202;BME280;20553;47.544;7.586;2022-07-23T22:58:06;98558.94;;;20.92;90.32
35202;BME280;20553;47.544;7.586;2022-07-23T23:03:12;98550.91;;;20.90;91.24
35202;BME280;20553;47.544;7.586;2022-07-23T23:08:16;98554.97;;;20.86;92.61
35202;BME280;20553;47.544;7.586;2022-07-23T23:13:20;98560.31;;;20.78;93.35
35202;BME280;20553;47.544;7.586;2022-07-23T23:18:25;98559.03;;;20.72;94.00
35202;BME280;20553;47.544;7.586;2022-07-23T23:23:29;98568.47;;;20.78;94.40
35202;BME280;20553;47.544;7.586;2022-07-23T23:28:34;98566.78;;;20.95;93.33
35202;BME280;20553;47.544;7.586;2022-07-23T23:33:40;98556.47;;;20.98;92.63
35202;BME280;20553;47.544;7.586;2022-07-23T23:38:44;98575.63;;;21.07;91.61
35202;BME280;20553;47.544;7.586;2022-07-23T23:43:48;98566.34;;;20.99;91.54
35202;BME280;20553;47.544;7.586;2022-07-23T23:48:54;98567.59;;;20.87;92.23
35202;BME280;20553;47.544;7.586;2022-07-23T23:53:58;98575.53;;;20.71;93.28
35202;BME280;20553;47.544;7.586;2022-07-23T23:59:02;98576.69;;;20.58;93.95
